Time;durP1;ratioP1;P1;durP2;ratioP2;P2;SDS_P1;SDS_P2;PMS_P1;PMS_P2;Temp;Humidity;BMP_temperature;BMP_pressure;BME280_temperature;BME280_humidity;BME280_pressure;Samples;Min_cycle;Max_cycle;Signal;HPM_P1;HPM_P2
2021/12/11 00:00:15;;;;;;;37.27;33.23;;;4.20;1.00;6.40;99104.00;;;;5037362;28;20456;-80
2021/12/11 00:02:56;;;;;;;38.67;34.20;;;4.20;1.00;6.40;99139.00;;;;5062658;28;20492;-79
2021/12/11 00:05:25;;;;;;;40.50;34.90;;;4.20;1.00;6.30;99109.00;;;;5071366;28;20480;-80
2021/12/11 00:07:55;;;;;;;38.67;34.60;;;4.20;1.00;6.30;99168.00;;;;5058227;28;20471;-79
2021/12/11 00:10:30;;;;;;;41.03;34.30;;;4.20;1.00;6.40;99157.00;;;;5059477;28;20429;-79
2021/12/11 00:13:07;;;;;;;40.80;33.57;;;4.20;1.00;6.30;99166.00;;;;5060231;28;20425;-79
2021/12/11 00:15:41;;;;;;;39.87;33.77;;;4.20;1.00;5.90;99175.00;;;;5063574;28;20449;-80
2021/12/11 00:18:14;;;;;;;40.37;34.30;;;4.20;1.00;6.20;99132.00;;;;5061428;28;20547;-79
2021/12/11 00:20:53;;;;;;;35.57;31.73;;;4.20;1.00;6.30;99183.00;;;;5066046;28;20481;-80
2021/12/11 00:23:27;;;;;;;37.93;33.00;;;4.30;1.00;6.30;99158.00;;;;5040931;28;20543;-78
2021/12/11 00:25:57;;;;;;;34.80;31.10;;;4.30;1.00;6.30;99192.00;;;;5044228;28;20561;-79
2021/12/11 00:28:26;;;;;;;36.27;32.47;;;4.30;1.00;6.30;99192.00;;;;5059294;28;20460;-81
2021/12/11 00:30:56;;;;;;;34.77;30.60;;;4.30;1.00;6.30;99181.00;;;;5075794;28;20560;-79
2021/12/11 00:33:28;;;;;;;37.07;32.47;;;4.30;1.00;6.20;99190.00;;;;5060037;28;20445;-79
2021/12/11 00:35:57;;;;;;;36.97;32.37;;;4.30;1.00;6.20;99181.00;;;;5046356;28;20461;-79
2021/12/11 00:38:33;;;;;;;33.30;28.67;;;4.30;1.00;6.20;99199.00;;;;5042398;28;20519;-80
2021/12/11 00:41:07;;;;;;;35.77;31.87;;;4.30;1.00;6.20;99227.00;;;;5037777;28;20449;-78
2021/12/11 00:43:40;;;;;;;37.40;32.30;;;4.30;1.00;6.20;99211.00;;;;5036316;28;20455;-78
2021/12/11 00:46:13;;;;;;;34.77;31.00;;;4.20;1.00;6.10;99201.00;;;;5028665;28;20473;-79
2021/12/11 00:48:43;;;;;;;37.23;32.20;;;4.20;1.00;6.20;99216.00;;;;5035055;28;20463;-79
2021/12/11 00:51:18;;;;;;;39.40;33.33;;;4.20;1.00;6.30;99251.00;;;;5065664;28;20456;-80
2021/12/11 00:53:52;;;;;;;36.13;32.10;;;4.30;1.00;6.30;99251.00;;;;5056413;28;20449;-80
2021/12/11 00:56:25;;;;;;;29.47;26.40;;;4.30;1.00;6.40;99256.00;;;;5037304;28;20546;-79
2021/12/11 00:58:57;;;;;;;32.57;27.20;;;4.50;1.00;6.40;99233.00;;;;5057059;22;20497;-77
2021/12/11 01:01:29;;;;;;;31.17;27.80;;;4.40;1.00;6.40;99269.00;;;;5008290;28;20476;-78
2021/12/11 01:04:06;;;;;;;29.83;26.73;;;4.50;1.00;6.40;99268.00;;;;5013578;28;20573;-78
2021/12/11 01:06:40;;;;;;;30.37;27.10;;;4.50;1.00;6.40;99272.00;;;;5011924;28;20456;-78
2021/12/11 01:09:12;;;;;;;31.33;28.03;;;4.50;1.00;6.50;99263.00;;;;5002493;28;20474;-78
2021/12/11 01:11:47;;;;;;;31.93;28.60;;;4.50;1.00;6.50;99281.00;;;;4996165;28;20441;-78
2021/12/11 01:14:25;;;;;;;30.80;27.50;;;4.50;1.00;6.50;99294.00;;;;5002135;28;20465;-78
2021/12/11 01:17:00;;;;;;;29.63;26.60;;;4.50;1.00;6.60;99311.00;;;;5013817;28;20476;-78
2021/12/11 01:19:36;;;;;;;31.60;27.47;;;4.40;1.00;6.50;99292.00;;;;5029565;28;20527;-78
2021/12/11 01:22:11;;;;;;;30.40;27.10;;;4.50;1.00;6.40;99278.00;;;;5014098;28;20544;-78
2021/12/11 01:24:44;;;;;;;29.57;26.40;;;4.50;1.00;6.40;99318.00;;;;5013817;28;20564;-79
2021/12/11 01:27:19;;;;;;;29.77;26.50;;;4.40;1.00;6.30;99331.00;;;;5013113;28;20481;-78
2021/12/11 01:29:57;;;;;;;30.20;27.20;;;4.40;1.00;6.30;99335.00;;;;5000601;28;20460;-79
2021/12/11 01:32:26;;;;;;;25.80;23.30;;;4.40;1.00;6.20;99341.00;;;;5012555;28;20466;-78
2021/12/11 01:34:56;;;;;;;28.30;25.50;;;4.30;1.00;6.00;99351.00;;;;5013659;28;20461;-80
2021/12/11 01:37:25;;;;;;;27.17;24.57;;;4.30;1.00;6.00;99358.00;;;;5012850;28;20509;-78
2021/12/11 01:39:54;;;;;;;28.77;25.97;;;4.30;1.00;6.00;99352.00;;;;5015348;28;20469;-79
2021/12/11 01:42:29;;;;;;;29.57;26.50;;;4.30;1.00;6.10;99342.00;;;;5014630;28;20484;-78
2021/12/11 01:45:00;;;;;;;28.77;25.90;;;4.40;1.00;6.20;99369.00;;;;5012049;28;20591;-78
2021/12/11 01:47:32;;;;;;;30.00;26.80;;;4.40;1.00;6.30;99354.00;;;;5021645;28;20474;-79
2021/12/11 01:50:09;;;;;;;29.33;26.30;;;4.40;1.00;6.30;99400.00;;;;5012895;28;20461;-79
2021/12/11 01:52:47;;;;;;;30.03;26.67;;;4.50;1.00;6.30;99378.00;;;;5013887;28;20537;-79
2021/12/11 01:55:29;;;;;;;29.10;26.07;;;4.50;1.00;6.40;99376.00;;;;5013642;28;20497;-79
2021/12/11 01:58:00;;;;;;;27.07;24.47;;;4.50;1.00;6.30;99397.00;;;;5011709;28;20473;-78
2021/12/11 02:00:35;;;;;;;27.70;24.97;;;4.50;1.00;6.40;99403.00;;;;5012842;28;20548;-79
2021/12/11 02:03:10;;;;;;;28.67;25.97;;;4.50;1.00;6.40;99390.00;;;;5020885;28;20540;-79
2021/12/11 02:05:40;;;;;;;26.83;24.03;;;4.50;1.00;6.40;99397.00;;;;4992667;28;20466;-79
2021/12/11 02:08:12;;;;;;;26.50;23.80;;;4.50;1.00;6.50;99417.00;;;;4996892;28;20458;-78
2021/12/11 02:10:45;;;;;;;24.60;22.03;;;4.50;1.00;6.60;99391.00;;;;4993939;28;20430;-78
2021/12/11 02:13:28;;;;;;;26.27;23.67;;;4.50;1.00;6.60;99418.00;;;;5000835;28;20456;-78
2021/12/11 02:15:56;;;;;;;24.87;22.47;;;4.50;1.00;6.60;99432.00;;;;5013859;28;20421;-78
2021/12/11 02:18:34;;;;;;;24.50;22.20;;;4.60;1.00;6.70;99441.00;;;;5030182;28;20490;-80
2021/12/11 02:21:11;;;;;;;24.57;22.17;;;4.50;1.00;6.70;99446.00;;;;5035239;28;20434;-79
2021/12/11 02:23:41;;;;;;;20.80;18.90;;;4.60;1.00;6.70;99457.00;;;;5029621;28;20437;-80
2021/12/11 02:26:15;;;;;;;21.63;19.47;;;4.50;1.00;6.50;99461.00;;;;5051353;28;20936;-78
2021/12/11 02:28:54;;;;;;;23.53;21.13;;;4.50;1.00;6.50;99468.00;;;;5034279;28;20479;-79
2021/12/11 02:31:32;;;;;;;22.57;20.20;;;4.50;1.00;6.40;99458.00;;;;5045340;28;20452;-79
2021/12/11 02:34:09;;;;;;;22.37;20.20;;;4.50;1.00;6.30;99471.00;;;;5035095;28;20861;-80
2021/12/11 02:36:43;;;;;;;21.43;19.53;;;4.50;1.00;6.30;99474.00;;;;5035353;28;20459;-80
2021/12/11 02:39:19;;;;;;;23.70;21.50;;;4.50;1.00;6.30;99466.00;;;;5047851;28;20478;-78
2021/12/11 02:41:57;;;;;;;23.27;20.87;;;4.40;1.00;6.40;99473.00;;;;5017594;28;20457;-78
2021/12/11 02:44:30;;;;;;;23.00;20.80;;;4.40;1.00;6.30;99492.00;;;;5013985;28;20432;-78
2021/12/11 02:47:05;;;;;;;23.30;21.17;;;4.50;1.00;6.40;99494.00;;;;5013121;28;20453;-79
2021/12/11 02:49:38;;;;;;;23.50;21.30;;;4.50;1.00;6.50;99489.00;;;;5012910;28;20472;-79
2021/12/11 02:52:13;;;;;;;22.90;20.60;;;4.60;1.00;6.40;99493.00;;;;5014024;28;20527;-78
2021/12/11 02:54:47;;;;;;;24.53;22.33;;;4.60;1.00;6.50;99505.00;;;;5020079;28;20428;-78
2021/12/11 02:57:21;;;;;;;21.77;19.67;;;4.60;1.00;6.50;99513.00;;;;5037708;28;21001;-78
2021/12/11 02:59:50;;;;;;;21.67;19.37;;;4.60;1.00;6.50;99505.00;;;;5033552;28;20421;-79
2021/12/11 03:02:22;;;;;;;20.50;18.60;;;4.70;1.00;6.50;99510.00;;;;5024460;28;20452;-77
2021/12/11 03:04:54;;;;;;;21.23;19.23;;;4.60;1.00;6.50;99517.00;;;;5019371;28;20599;-78
2021/12/11 03:07:34;;;;;;;21.97;19.97;;;4.60;1.00;6.60;99521.00;;;;5036418;28;20476;-78
2021/12/11 03:10:08;;;;;;;22.57;20.33;;;4.70;1.00;6.60;99528.00;;;;5037949;28;20428;-79
2021/12/11 03:12:37;;;;;;;24.07;21.70;;;4.70;1.00;6.60;99545.00;;;;5045812;28;20456;-79
2021/12/11 03:15:09;;;;;;;23.77;21.40;;;4.60;1.00;6.70;99553.00;;;;5045256;28;20490;-80
2021/12/11 03:17:38;;;;;;;26.13;23.60;;;4.60;1.00;6.70;99555.00;;;;5042259;28;20487;-78
2021/12/11 03:20:10;;;;;;;25.47;22.93;;;4.60;1.00;6.70;99560.00;;;;5042052;28;20817;-79
2021/12/11 03:22:39;;;;;;;24.83;22.43;;;4.60;1.00;6.70;99538.00;;;;5037151;28;20488;-79
2021/12/11 03:25:15;;;;;;;25.03;22.73;;;4.60;1.00;6.70;99557.00;;;;5041422;28;20460;-78
2021/12/11 03:27:44;;;;;;;25.33;23.03;;;4.60;1.00;6.70;99561.00;;;;5035090;28;20571;-77
2021/12/11 03:30:20;;;;;;;25.53;23.13;;;4.60;1.00;6.70;99573.00;;;;5032072;28;20460;-78
2021/12/11 03:32:50;;;;;;;25.97;23.37;;;4.50;1.00;6.70;99584.00;;;;5036613;28;20441;-78
2021/12/11 03:35:19;;;;;;;23.77;21.37;;;4.60;1.00;6.70;99563.00;;;;5035122;28;20452;-78
2021/12/11 03:37:47;;;;;;;25.77;23.07;;;4.60;1.00;6.70;99594.00;;;;5019151;28;20461;-78
2021/12/11 03:40:19;;;;;;;23.43;21.13;;;4.60;1.00;6.70;99595.00;;;;5036973;28;20440;-78
2021/12/11 03:42:50;;;;;;;23.87;21.57;;;4.70;1.00;6.70;99597.00;;;;5011008;28;20444;-78
2021/12/11 03:45:22;;;;;;;24.93;22.60;;;4.70;1.00;6.70;99602.00;;;;5035177;28;20891;-78
2021/12/11 03:47:55;;;;;;;24.70;22.30;;;4.70;1.00;6.70;99620.00;;;;5018235;28;20475;-78
2021/12/11 03:50:27;;;;;;;27.37;24.47;;;4.70;1.00;6.50;99602.00;;;;5035969;28;20428;-78
2021/12/11 03:52:56;;;;;;;25.23;22.63;;;4.70;1.00;6.50;99624.00;;;;5036136;28;20451;-78
2021/12/11 03:55:30;;;;;;;27.00;24.40;;;4.60;1.00;6.40;99625.00;;;;5032328;28;20463;-78
2021/12/11 03:58:01;;;;;;;25.90;23.37;;;4.60;1.00;6.40;99631.00;;;;5036262;28;20465;-78
2021/12/11 04:00:35;;;;;;;25.90;23.50;;;4.60;1.00;6.30;99636.00;;;;5035331;28;20453;-78
2021/12/11 04:03:06;;;;;;;26.07;23.57;;;4.60;1.00;6.40;99650.00;;;;5036128;28;20455;-79
2021/12/11 04:05:40;;;;;;;25.80;23.23;;;4.60;1.00;6.30;99630.00;;;;5030943;28;20470;-78
2021/12/11 04:08:15;;;;;;;24.47;22.17;;;4.50;1.00;6.40;99621.00;;;;5026912;28;20458;-78
2021/12/11 04:10:46;;;;;;;26.07;23.77;;;4.60;1.00;6.40;99644.00;;;;5038041;28;20511;-79
2021/12/11 04:13:16;;;;;;;26.73;24.23;;;4.60;1.00;6.40;99648.00;;;;5031419;28;20442;-78
2021/12/11 04:15:47;;;;;;;26.37;23.37;;;4.50;1.00;6.40;99656.00;;;;5018666;28;20492;-78
2021/12/11 04:18:16;;;;;;;25.30;22.80;;;4.60;1.00;6.40;99670.00;;;;5023772;28;20473;-78
2021/12/11 04:20:48;;;;;;;24.50;21.90;;;4.50;1.00;6.40;99673.00;;;;5034895;28;20536;-78
2021/12/11 04:23:18;;;;;;;24.00;21.60;;;4.50;1.00;6.40;99626.00;;;;5034911;28;20484;-78
2021/12/11 04:25:53;;;;;;;24.23;21.73;;;4.50;1.00;6.40;99652.00;;;;5033446;28;20469;-78
2021/12/11 04:28:29;;;;;;;26.17;23.67;;;4.60;1.00;6.50;99667.00;;;;5034885;28;22118;-77
2021/12/11 04:31:07;;;;;;;26.50;24.00;;;4.50;1.00;6.60;99684.00;;;;5034651;28;20452;-77
2021/12/11 04:33:39;;;;;;;25.60;23.03;;;4.60;1.00;6.60;99691.00;;;;5037291;28;20490;-78
2021/12/11 04:36:12;;;;;;;26.17;23.67;;;4.60;1.00;6.70;99685.00;;;;5025272;28;20460;-78
2021/12/11 04:38:42;;;;;;;27.70;25.00;;;4.60;1.00;6.70;99698.00;;;;5034971;28;20464;-78
2021/12/11 04:41:28;;;;;;;28.20;25.33;;;4.50;1.00;6.70;99692.00;;;;5051409;28;20501;-78
2021/12/11 04:43:59;;;;;;;27.90;25.20;;;4.60;1.00;6.70;99692.00;;;;5035795;28;20540;-78
2021/12/11 04:46:27;;;;;;;28.10;25.20;;;4.50;1.00;6.70;99699.00;;;;5033913;28;20475;-78
2021/12/11 04:49:05;;;;;;;27.07;24.40;;;4.50;1.00;6.70;99702.00;;;;5033273;28;20472;-78
2021/12/11 04:51:45;;;;;;;29.00;26.10;;;4.50;1.00;6.70;99660.00;;;;5019103;28;20448;-78
2021/12/11 04:54:33;;;;;;;28.30;25.50;;;4.50;1.00;6.70;99717.00;;;;5028427;28;20445;-78
2021/12/11 04:57:36;;;;;;;26.90;24.20;;;4.50;1.00;6.70;99722.00;;;;5030973;28;20452;-79
2021/12/11 05:00:09;;;;;;;26.77;24.17;;;4.50;1.00;6.70;99732.00;;;;5030123;28;20460;-78
2021/12/11 05:05:48;;;;;;;27.67;24.90;;;4.50;1.00;6.70;99746.00;;;;5003008;28;20480;-79
2021/12/11 05:08:58;;;;;;;28.23;24.50;;;4.50;1.00;6.70;99729.00;;;;5013997;28;20470;-78
2021/12/11 05:11:21;;;;;;;27.43;24.60;;;4.50;1.00;6.80;99753.00;;;;5015517;28;20449;-79
2021/12/11 05:13:51;;;;;;;27.43;24.53;;;4.50;1.00;6.70;99753.00;;;;5014686;28;21072;-77
2021/12/11 05:16:19;;;;;;;26.10;23.60;;;4.50;1.00;6.70;99728.00;;;;5022184;28;20475;-78
2021/12/11 05:18:48;;;;;;;26.00;23.40;;;4.50;1.00;6.70;99761.00;;;;5028535;28;20470;-77
2021/12/11 05:21:19;;;;;;;26.43;23.80;;;4.50;1.00;6.60;99785.00;;;;5032215;28;20540;-77
2021/12/11 05:23:51;;;;;;;28.27;24.73;;;4.60;1.00;6.60;99772.00;;;;5034417;28;20788;-77
2021/12/11 05:26:21;;;;;;;25.43;22.93;;;4.60;1.00;6.60;99768.00;;;;5033771;28;20465;-77
2021/12/11 05:28:51;;;;;;;27.43;24.57;;;4.60;1.00;6.40;99782.00;;;;5033707;28;20461;-77
2021/12/11 05:31:19;;;;;;;25.23;22.70;;;4.60;1.00;6.30;99796.00;;;;5024440;28;20451;-79
2021/12/11 05:33:49;;;;;;;25.40;23.10;;;4.60;1.00;6.30;99785.00;;;;5054467;28;20424;-78
2021/12/11 05:36:21;;;;;;;26.07;23.60;;;4.60;1.00;6.20;99820.00;;;;5073962;28;20440;-78
2021/12/11 05:38:50;;;;;;;25.27;22.90;;;4.60;1.00;6.30;99824.00;;;;5072827;28;20464;-79
2021/12/11 05:41:22;;;;;;;26.20;23.50;;;4.60;1.00;6.30;99787.00;;;;5052239;28;20441;-78
2021/12/11 05:43:54;;;;;;;24.83;22.30;;;4.60;1.00;6.30;99827.00;;;;5048727;28;20449;-78
2021/12/11 05:46:23;;;;;;;24.97;22.37;;;4.70;1.00;6.40;99819.00;;;;5040679;28;20453;-79
2021/12/11 05:48:52;;;;;;;26.00;23.57;;;4.60;1.00;6.40;99825.00;;;;5049165;28;20487;-78
2021/12/11 05:51:24;;;;;;;26.63;24.00;;;4.60;1.00;6.50;99827.00;;;;5049319;28;20449;-78
2021/12/11 05:53:58;;;;;;;26.10;23.50;;;4.60;1.00;6.50;99828.00;;;;5052121;28;20513;-77
2021/12/11 05:56:33;;;;;;;26.73;24.17;;;4.60;1.00;6.50;99843.00;;;;5032045;28;20460;-77
2021/12/11 05:59:04;;;;;;;25.93;23.50;;;4.60;1.00;6.60;99843.00;;;;5039684;28;20586;-77
2021/12/11 06:01:37;;;;;;;28.20;25.50;;;4.60;1.00;6.70;99849.00;;;;5032511;28;20461;-79
2021/12/11 06:04:09;;;;;;;27.27;24.47;;;4.60;1.00;6.70;99847.00;;;;5015965;28;20536;-78
2021/12/11 06:06:39;;;;;;;29.43;26.47;;;4.50;1.00;6.60;99831.00;;;;5033009;28;20472;-79
2021/12/11 06:09:12;;;;;;;27.60;24.83;;;4.50;1.00;6.70;99870.00;;;;5038888;28;21023;-78
2021/12/11 06:11:42;;;;;;;28.50;25.70;;;4.50;1.00;6.60;99890.00;;;;5015421;28;20441;-78
2021/12/11 06:14:11;;;;;;;28.00;25.10;;;4.50;1.00;6.60;99884.00;;;;5039991;28;20484;-78
2021/12/11 06:16:40;;;;;;;28.23;25.37;;;4.50;1.00;6.60;99863.00;;;;5038425;28;20469;-78
2021/12/11 06:19:09;;;;;;;28.40;25.70;;;4.40;1.00;6.60;99856.00;;;;5052669;28;20494;-79
2021/12/11 06:21:38;;;;;;;27.70;24.80;;;4.50;1.00;6.50;99903.00;;;;5049497;28;20440;-78
2021/12/11 06:24:07;;;;;;;28.50;25.60;;;4.40;1.00;6.60;99899.00;;;;5033164;28;20448;-78
2021/12/11 06:26:35;;;;;;;29.57;26.57;;;4.50;1.00;6.60;99910.00;;;;5032068;28;20453;-78
2021/12/11 06:29:05;;;;;;;27.80;25.10;;;4.40;1.00;6.50;99914.00;;;;5017381;28;20473;-78
2021/12/11 06:31:35;;;;;;;28.10;25.30;;;4.30;1.00;6.50;99870.00;;;;5032650;28;20464;-78
2021/12/11 06:34:05;;;;;;;30.77;27.63;;;4.30;1.00;6.40;99929.00;;;;5017286;28;20452;-78
2021/12/11 06:36:33;;;;;;;31.77;28.40;;;4.20;1.00;6.40;99944.00;;;;5032109;28;20437;-78
2021/12/11 06:39:08;;;;;;;30.10;26.97;;;4.20;1.00;6.40;99947.00;;;;5032525;28;20467;-79
2021/12/11 06:41:40;;;;;;;30.00;27.10;;;4.20;1.00;6.30;99933.00;;;;5032361;28;20439;-77
2021/12/11 06:44:09;;;;;;;30.07;26.93;;;4.20;1.00;6.20;99947.00;;;;5035414;28;20441;-78
2021/12/11 06:46:41;;;;;;;31.27;28.07;;;4.10;1.00;6.10;99949.00;;;;5029744;28;20453;-79
2021/12/11 06:49:10;;;;;;;32.73;29.33;;;4.00;1.00;6.00;99957.00;;;;5034256;28;20889;-78
2021/12/11 06:51:39;;;;;;;32.77;29.47;;;4.00;1.00;5.90;99953.00;;;;5044653;28;20449;-78
2021/12/11 06:54:11;;;;;;;31.53;28.07;;;3.90;1.00;5.80;99966.00;;;;5037195;28;20447;-80
2021/12/11 06:56:41;;;;;;;32.37;28.87;;;3.80;1.00;5.70;99963.00;;;;5037510;28;20456;-78
2021/12/11 06:59:12;;;;;;;35.23;30.90;;;3.70;1.00;5.60;99989.00;;;;5040789;28;20472;-79
2021/12/11 07:01:42;;;;;;;32.40;29.07;;;3.70;1.00;5.50;99988.00;;;;5036068;28;20440;-78
2021/12/11 07:04:11;;;;;;;38.37;32.13;;;3.60;1.00;5.50;99991.00;;;;5034736;28;20467;-78
2021/12/11 07:06:43;;;;;;;36.43;31.73;;;3.40;1.00;5.40;99981.00;;;;5036025;28;20452;-78
2021/12/11 07:09:18;;;;;;;34.87;29.40;;;3.40;1.00;5.30;99980.00;;;;5038054;28;20480;-77
2021/12/11 07:11:47;;;;;;;33.57;30.13;;;3.30;1.00;5.30;99957.00;;;;5032755;28;20440;-78
2021/12/11 07:14:18;;;;;;;33.93;30.53;;;3.30;1.00;5.20;100024.00;;;;5035298;28;20444;-78
2021/12/11 07:16:50;;;;;;;36.63;32.77;;;3.30;1.00;5.10;100026.00;;;;5011597;28;20454;-78
2021/12/11 07:19:18;;;;;;;36.83;32.60;;;3.20;1.00;5.10;100033.00;;;;5042235;28;20453;-79
2021/12/11 07:21:50;;;;;;;34.63;30.93;;;3.10;1.00;5.10;100044.00;;;;5054256;28;20471;-79
2021/12/11 07:24:22;;;;;;;36.33;31.73;;;3.10;1.00;5.10;100048.00;;;;5033224;28;20437;-79
2021/12/11 07:26:51;;;;;;;36.27;32.43;;;3.00;1.00;5.00;100069.00;;;;5050414;28;20452;-79
2021/12/11 07:29:21;;;;;;;36.40;32.30;;;3.00;1.00;5.00;100074.00;;;;5027240;28;20481;-78
2021/12/11 07:31:53;;;;;;;37.20;33.20;;;3.00;1.00;5.00;100052.00;;;;5025555;28;21022;-77
2021/12/11 07:34:22;;;;;;;37.73;33.23;;;3.10;1.00;5.00;100043.00;;;;5036734;28;20463;-78
2021/12/11 07:36:51;;;;;;;36.00;32.10;;;2.90;1.00;5.00;100093.00;;;;5044453;28;20444;-78
2021/12/11 07:39:22;;;;;;;38.50;33.13;;;2.80;1.00;4.90;100095.00;;;;5034773;28;20466;-78
2021/12/11 07:41:54;;;;;;;36.83;33.00;;;2.90;1.00;4.90;100085.00;;;;5032176;28;20564;-78
2021/12/11 07:44:23;;;;;;;39.33;35.23;;;2.90;1.00;4.90;100102.00;;;;5032408;28;20953;-78
2021/12/11 07:46:55;;;;;;;44.00;39.23;;;2.90;1.00;4.90;100108.00;;;;5031735;28;20436;-78
2021/12/11 07:49:24;;;;;;;43.33;37.40;;;2.90;1.00;4.90;100118.00;;;;5033622;28;20460;-78
2021/12/11 07:51:53;;;;;;;39.40;33.47;;;2.80;1.00;4.80;100132.00;;;;5034939;28;20865;-78
2021/12/11 07:54:21;;;;;;;42.93;36.20;;;2.80;1.00;4.90;100117.00;;;;5037333;28;20428;-78
2021/12/11 07:56:52;;;;;;;37.90;32.67;;;2.70;1.00;4.80;100122.00;;;;5036334;28;20491;-78
2021/12/11 07:59:21;;;;;;;39.57;35.27;;;2.70;1.00;4.80;100136.00;;;;5038169;28;20456;-78
2021/12/11 08:01:53;;;;;;;40.90;36.17;;;2.70;1.00;4.80;100132.00;;;;5022647;28;20453;-79
2021/12/11 08:04:24;;;;;;;44.70;39.90;;;2.90;1.00;4.70;100165.00;;;;5039111;28;20444;-78
2021/12/11 08:06:53;;;;;;;44.77;39.50;;;2.90;1.00;4.70;100162.00;;;;5034780;28;20445;-80
2021/12/11 08:09:25;;;;;;;41.50;37.07;;;2.80;1.00;4.80;100170.00;;;;5058123;28;20478;-80
2021/12/11 08:11:54;;;;;;;37.93;33.83;;;2.70;1.00;4.80;100157.00;;;;5050467;28;20425;-80
2021/12/11 08:14:24;;;;;;;36.90;32.67;;;2.70;1.00;4.80;100166.00;;;;5057484;28;20456;-78
2021/12/11 08:16:57;;;;;;;38.20;33.70;;;2.80;1.00;4.90;100176.00;;;;5060488;28;20437;-79
2021/12/11 08:19:31;;;;;;;46.90;41.90;;;2.80;1.00;4.90;100175.00;;;;5057701;28;20441;-78
2021/12/11 08:22:04;;;;;;;50.23;39.50;;;2.90;1.00;4.90;100186.00;;;;5048900;28;20459;-77
2021/12/11 08:24:34;;;;;;;40.23;35.50;;;2.90;1.00;5.00;100189.00;;;;5057957;28;20428;-79
2021/12/11 08:27:10;;;;;;;46.87;39.53;;;2.90;1.00;5.00;100205.00;;;;5058007;28;20432;-78
2021/12/11 08:29:38;;;;;;;40.03;35.57;;;3.00;1.00;5.10;100200.00;;;;5065604;28;20487;-78
2021/12/11 08:32:09;;;;;;;41.17;36.87;;;3.00;1.00;5.10;100180.00;;;;5059120;28;20484;-79
2021/12/11 08:34:38;;;;;;;40.57;35.90;;;3.00;1.00;5.20;100181.00;;;;5052590;28;20425;-78
2021/12/11 08:37:10;;;;;;;38.87;34.00;;;3.10;1.00;5.30;100212.00;;;;5035965;28;20429;-78
2021/12/11 08:39:39;;;;;;;38.97;34.37;;;3.10;1.00;5.30;100233.00;;;;5016073;28;20462;-79
2021/12/11 08:42:11;;;;;;;39.90;35.83;;;3.20;1.00;5.40;100226.00;;;;5035957;28;20448;-78
2021/12/11 08:44:48;;;;;;;37.30;33.50;;;3.30;1.00;5.50;100225.00;;;;5036186;28;20469;-78
2021/12/11 08:47:22;;;;;;;39.63;34.67;;;3.60;1.00;5.60;100233.00;;;;5036042;28;20539;-78
2021/12/11 08:49:54;;;;;;;38.87;34.97;;;3.60;1.00;5.70;100218.00;;;;5035785;28;20469;-78
2021/12/11 08:52:26;;;;;;;66.90;52.00;;;3.60;1.00;5.80;100234.00;;;;5036530;28;20435;-78
2021/12/11 08:54:55;;;;;;;36.30;30.33;;;3.70;1.00;5.80;100253.00;;;;5034809;28;20441;-79
2021/12/11 08:57:29;;;;;;;49.43;43.70;;;3.70;1.00;5.80;100270.00;;;;5038208;28;20476;-79
2021/12/11 09:00:02;;;;;;;46.30;41.30;;;3.90;1.00;5.80;100257.00;;;;5018204;28;20446;-79
2021/12/11 09:02:43;;;;;;;46.03;41.30;;;3.90;1.00;5.80;100256.00;;;;5035979;28;20467;-79
2021/12/11 09:05:19;;;;;;;46.90;40.27;;;4.00;1.00;5.90;100262.00;;;;5035351;28;20436;-79
2021/12/11 09:07:53;;;;;;;42.63;38.27;;;4.10;1.00;5.90;100284.00;;;;5017717;28;20969;-78
2021/12/11 09:10:28;;;;;;;43.83;39.27;;;4.20;1.00;6.00;100274.00;;;;5037174;28;20452;-78
2021/12/11 09:13:03;;;;;;;42.70;38.13;;;4.30;1.00;6.10;100284.00;;;;5024871;28;20933;-79
2021/12/11 09:15:37;;;;;;;44.80;37.97;;;4.30;1.00;6.10;100279.00;;;;5011617;28;20461;-78
2021/12/11 09:18:13;;;;;;;42.30;37.67;;;4.60;1.00;6.20;100267.00;;;;5036939;28;20483;-78
2021/12/11 09:20:46;;;;;;;40.93;36.60;;;4.60;1.00;6.20;100294.00;;;;5030284;28;20448;-78
2021/12/11 09:23:24;;;;;;;42.33;36.60;;;4.60;1.00;6.20;100300.00;;;;5034572;28;20464;-78
2021/12/11 09:25:56;;;;;;;44.23;37.60;;;4.70;1.00;6.30;100309.00;;;;5034844;28;20452;-79
2021/12/11 09:28:31;;;;;;;39.57;34.53;;;4.70;1.00;6.30;100304.00;;;;5034351;28;20989;-77
2021/12/11 09:31:07;;;;;;;38.83;34.60;;;4.90;1.00;6.40;100322.00;;;;5035513;28;20575;-78
2021/12/11 09:33:48;;;;;;;38.33;32.93;;;4.90;1.00;6.40;100312.00;;;;5038318;28;20421;-79
2021/12/11 09:36:22;;;;;;;39.33;35.00;;;5.00;1.00;6.60;100319.00;;;;5056989;28;20486;-77
2021/12/11 09:38:58;;;;;;;38.53;34.33;;;5.00;1.00;6.60;100335.00;;;;5037902;28;20508;-78
2021/12/11 09:41:26;;;;;;;36.43;32.47;;;5.20;1.00;6.70;100321.00;;;;5035649;28;20456;-78
2021/12/11 09:44:00;;;;;;;34.83;31.03;;;5.20;1.00;6.70;100340.00;;;;5042123;28;20456;-78
2021/12/11 09:46:34;;;;;;;34.40;30.67;;;5.40;1.00;6.70;100338.00;;;;5036801;28;20457;-78
2021/12/11 09:49:06;;;;;;;38.30;32.53;;;5.40;1.00;6.90;100331.00;;;;5051255;28;20497;-80
2021/12/11 09:51:42;;;;;;;36.90;32.90;;;5.40;1.00;6.90;100344.00;;;;5050873;28;20453;-78
2021/12/11 09:54:17;;;;;;;34.60;30.57;;;5.50;1.00;7.00;100352.00;;;;5041725;28;20523;-78
2021/12/11 09:56:52;;;;;;;36.30;31.57;;;5.50;1.00;7.10;100335.00;;;;5041848;28;20440;-77
2021/12/11 09:59:24;;;;;;;35.77;30.40;;;5.40;1.00;7.20;100357.00;;;;5037260;28;20472;-78
2021/12/11 10:01:56;;;;;;;35.97;31.10;;;5.60;1.00;7.30;100343.00;;;;5036736;28;20457;-77
2021/12/11 10:04:32;;;;;;;35.87;31.60;;;5.50;1.00;7.40;100355.00;;;;5036757;28;20449;-78
2021/12/11 10:07:27;;;;;;;36.73;32.80;;;5.70;1.00;7.50;100362.00;;;;5032435;28;20444;-77
2021/12/11 10:10:07;;;;;;;36.93;32.20;;;5.70;1.00;7.50;100370.00;;;;5031220;28;21015;-77
2021/12/11 10:12:39;;;;;;;39.53;32.13;;;5.70;1.00;7.40;100357.00;;;;5034046;28;20559;-78
2021/12/11 10:15:16;;;;;;;41.63;36.33;;;5.80;1.00;7.30;100368.00;;;;5027528;28;20460;-77
2021/12/11 10:17:50;;;;;;;41.43;33.90;;;5.70;1.00;7.20;100365.00;;;;5030192;28;20507;-77
2021/12/11 10:20:25;;;;;;;43.20;35.07;;;5.60;1.00;7.30;100372.00;;;;5026391;28;20460;-77
2021/12/11 10:22:57;;;;;;;38.87;34.73;;;5.70;1.00;7.30;100378.00;;;;5030575;28;20456;-78
2021/12/11 10:25:31;;;;;;;40.70;34.27;;;5.80;1.00;7.30;100374.00;;;;5044108;28;20545;-77
2021/12/11 10:28:01;;;;;;;38.20;34.10;;;5.80;1.00;7.40;100389.00;;;;5032320;28;20484;-77
2021/12/11 10:30:36;;;;;;;40.27;34.13;;;5.90;1.00;7.40;100379.00;;;;5031966;28;20551;-78
2021/12/11 10:33:05;;;;;;;38.80;34.33;;;6.00;1.00;7.40;100378.00;;;;5032242;28;20487;-77
2021/12/11 10:35:42;;;;;;;38.73;34.63;;;6.00;1.00;7.40;100390.00;;;;5032448;28;20467;-77
2021/12/11 10:38:11;;;;;;;38.67;34.53;;;6.10;1.00;7.60;100384.00;;;;5024794;28;20476;-78
2021/12/11 10:40:43;;;;;;;38.73;34.50;;;6.10;1.00;7.60;100385.00;;;;5039786;28;20466;-77
2021/12/11 10:43:17;;;;;;;41.33;36.83;;;6.10;1.00;7.60;100379.00;;;;5034829;28;20781;-76
2021/12/11 10:45:47;;;;;;;38.93;34.70;;;6.20;1.00;7.70;100389.00;;;;5022824;28;20453;-77
2021/12/11 10:48:25;;;;;;;38.63;34.50;;;6.30;1.00;7.70;100406.00;;;;5029459;28;20598;-77
2021/12/11 10:51:00;;;;;;;39.23;34.93;;;6.30;1.00;7.80;100408.00;;;;5031289;28;20471;-77
2021/12/11 10:53:31;;;;;;;39.83;34.90;;;6.40;1.00;7.90;100393.00;;;;5033013;28;20449;-77
2021/12/11 10:56:06;;;;;;;39.27;35.00;;;6.50;1.00;8.00;100396.00;;;;5029625;28;20461;-77
2021/12/11 10:58:40;;;;;;;39.67;33.97;;;6.50;1.00;7.90;100403.00;;;;5040741;28;20518;-78
2021/12/11 11:01:16;;;;;;;36.70;32.57;;;6.30;1.00;7.90;100365.00;;;;5027123;28;20475;-79
2021/12/11 11:03:56;;;;;;;39.97;34.90;;;6.20;1.00;8.10;100409.00;;;;5033411;28;20456;-77
2021/12/11 11:06:25;;;;;;;37.80;30.20;;;6.40;1.00;8.10;100413.00;;;;5029576;28;20457;-77
2021/12/11 11:08:54;;;;;;;30.60;26.97;;;6.50;1.00;8.20;100371.00;;;;5032867;28;20476;-78
2021/12/11 11:11:26;;;;;;;30.70;26.80;;;6.70;1.00;8.30;100411.00;;;;5035012;28;20448;-77
2021/12/11 11:13:56;;;;;;;27.40;24.27;;;6.90;1.00;8.50;100425.00;;;;5045437;28;20473;-77
2021/12/11 11:16:26;;;;;;;27.63;24.73;;;7.00;1.00;8.30;100436.00;;;;5035085;28;20460;-77
2021/12/11 11:18:54;;;;;;;25.73;22.67;;;6.80;1.00;8.10;100433.00;;;;5032771;28;20595;-78
2021/12/11 11:21:28;;;;;;;28.13;22.57;;;6.70;1.00;8.00;100432.00;;;;5032393;28;20478;-77
2021/12/11 11:23:57;;;;;;;28.30;24.70;;;6.70;1.00;8.10;100434.00;;;;5031334;28;20467;-77
2021/12/11 11:26:32;;;;;;;27.43;24.13;;;6.60;1.00;8.20;100436.00;;;;5031887;28;20461;-77